Time;durP1;ratioP1;P1;durP2;ratioP2;P2;SDS_P1;SDS_P2;PMS_P1;PMS_P2;Temp;Humidity;BMP_temperature;BMP_pressure;BME280_temperature;BME280_humidity;BME280_pressure;Samples;Min_cycle;Max_cycle;Signal;HPM_P1;HPM_P2
2022/08/27 00:01:07;;;;;;;10.73;7.07;;;;;;;;;;2058807;28;20057;-81
2022/08/27 00:02:26;;;;;;;12.75;7.80;;;;;;;;;;2062986;28;20014;-82
2022/08/27 00:03:45;;;;;;;10.00;7.20;;;;;;;;;;2059557;28;20031;-82
2022/08/27 00:05:04;;;;;;;11.90;7.57;;;;;;;;;;2052548;28;20117;-82
2022/08/27 00:06:24;;;;;;;15.30;8.00;;;;;;;;;;2057629;28;20030;-82
2022/08/27 00:07:43;;;;;;;11.48;8.00;;;;;;;;;;2054013;28;20042;-82
2022/08/27 00:09:02;;;;;;;14.27;8.30;;;;;;;;;;2058864;28;20031;-81
2022/08/27 00:10:23;;;;;;;13.10;8.55;;;;;;;;;;2060844;28;20026;-81
2022/08/27 00:11:44;;;;;;;10.65;7.72;;;;;;;;;;2064829;28;20038;-83
2022/08/27 00:13:03;;;;;;;13.38;7.65;;;;;;;;;;2066248;28;20022;-82
2022/08/27 00:14:22;;;;;;;8.85;7.97;;;;;;;;;;2067847;28;20289;-82
2022/08/27 00:15:41;;;;;;;8.07;7.25;;;;;;;;;;2056420;28;20038;-82
2022/08/27 00:17:00;;;;;;;19.05;8.48;;;;;;;;;;2064050;28;20554;-82
2022/08/27 00:18:21;;;;;;;11.27;7.47;;;;;;;;;;2063228;28;20125;-82
2022/08/27 00:19:41;;;;;;;17.17;8.30;;;;;;;;;;2065784;28;20038;-82
2022/08/27 00:21:01;;;;;;;14.48;8.35;;;;;;;;;;2058900;28;20921;-82
2022/08/27 00:22:20;;;;;;;13.63;8.70;;;;;;;;;;2064701;28;20448;-81
2022/08/27 00:23:39;;;;;;;11.15;7.28;;;;;;;;;;2065159;28;20030;-81
2022/08/27 00:24:58;;;;;;;11.50;8.02;;;;;;;;;;2059438;28;20022;-82
2022/08/27 00:26:17;;;;;;;9.95;7.70;;;;;;;;;;2056422;28;20027;-82
2022/08/27 00:27:37;;;;;;;15.25;8.85;;;;;;;;;;2064549;28;20035;-82
2022/08/27 00:28:56;;;;;;;14.90;8.02;;;;;;;;;;2056847;28;20046;-82
2022/08/27 00:30:17;;;;;;;12.02;8.15;;;;;;;;;;2061999;28;20037;-81
2022/08/27 00:31:35;;;;;;;11.45;7.70;;;;;;;;;;2066899;28;20034;-82
2022/08/27 00:32:55;;;;;;;15.30;8.30;;;;;;;;;;2059160;28;20466;-81
2022/08/27 00:34:14;;;;;;;10.60;8.02;;;;;;;;;;2058104;28;20038;-81
2022/08/27 00:35:33;;;;;;;12.85;8.10;;;;;;;;;;2055487;28;20034;-83
2022/08/27 00:36:52;;;;;;;12.98;7.57;;;;;;;;;;2066459;28;20503;-83
2022/08/27 00:38:11;;;;;;;11.55;7.93;;;;;;;;;;2057499;28;20042;-82
2022/08/27 00:39:29;;;;;;;16.05;8.45;;;;;;;;;;2063761;28;20030;-82
2022/08/27 00:40:49;;;;;;;11.30;8.13;;;;;;;;;;2061304;28;20027;-82
2022/08/27 00:42:08;;;;;;;17.88;8.30;;;;;;;;;;2066806;28;20022;-82
2022/08/27 00:43:30;;;;;;;10.90;7.63;;;;;;;;;;2067019;28;20069;-82
2022/08/27 00:44:49;;;;;;;13.52;7.82;;;;;;;;;;2061347;28;20034;-82
2022/08/27 00:46:13;;;;;;;10.70;7.97;;;;;;;;;;2063164;28;20484;-82
2022/08/27 00:47:34;;;;;;;12.88;8.00;;;;;;;;;;2062562;28;20169;-82
2022/08/27 00:48:56;;;;;;;14.43;8.00;;;;;;;;;;2057186;28;20027;-82
2022/08/27 00:50:18;;;;;;;18.20;8.40;;;;;;;;;;2066863;28;20034;-82
2022/08/27 00:51:38;;;;;;;12.90;8.77;;;;;;;;;;2060561;28;20038;-82
2022/08/27 00:52:59;;;;;;;16.30;8.73;;;;;;;;;;2066247;28;20057;-82
2022/08/27 00:54:19;;;;;;;10.38;8.20;;;;;;;;;;2066632;28;20031;-81
2022/08/27 00:55:41;;;;;;;10.45;8.23;;;;;;;;;;2057592;28;20484;-82
2022/08/27 00:57:02;;;;;;;11.45;7.70;;;;;;;;;;2062584;28;20061;-81
2022/08/27 00:58:41;;;;;;;12.73;8.10;;;;;;;;;;2057919;28;20034;-82
2022/08/27 01:00:01;;;;;;;19.70;8.32;;;;;;;;;;2066387;28;20577;-81
2022/08/27 01:01:22;;;;;;;10.05;7.13;;;;;;;;;;2056239;28;20023;-81
2022/08/27 01:02:42;;;;;;;13.70;8.40;;;;;;;;;;2065408;28;20026;-82
2022/08/27 01:04:04;;;;;;;10.30;7.60;;;;;;;;;;2058774;28;20106;-82
2022/08/27 01:05:25;;;;;;;12.50;7.65;;;;;;;;;;2061011;28;20018;-81
2022/08/27 01:06:44;;;;;;;13.13;8.25;;;;;;;;;;2059201;28;20455;-81
2022/08/27 01:08:06;;;;;;;15.02;8.07;;;;;;;;;;2059859;28;20035;-81
2022/08/27 01:09:25;;;;;;;16.08;8.65;;;;;;;;;;2056804;28;20026;-82
2022/08/27 01:10:45;;;;;;;17.85;7.70;;;;;;;;;;2065640;28;20476;-83
2022/08/27 01:12:04;;;;;;;14.65;7.90;;;;;;;;;;2057741;28;20114;-82
2022/08/27 01:13:24;;;;;;;13.85;7.15;;;;;;;;;;2060180;28;20082;-82
2022/08/27 01:14:44;;;;;;;14.55;8.35;;;;;;;;;;2063607;28;20057;-81
2022/08/27 01:16:04;;;;;;;13.93;8.60;;;;;;;;;;2062318;28;20031;-82
2022/08/27 01:17:24;;;;;;;13.18;7.78;;;;;;;;;;2064306;28;20404;-81
2022/08/27 01:18:43;;;;;;;12.38;8.15;;;;;;;;;;2066977;28;20043;-82
2022/08/27 01:20:07;;;;;;;13.88;8.30;;;;;;;;;;2060478;28;20568;-81
2022/08/27 01:21:41;;;;;;;11.90;7.70;;;;;;;;;;2064386;28;20046;-82
2022/08/27 01:23:03;;;;;;;12.25;7.85;;;;;;;;;;2069044;28;20113;-81
2022/08/27 01:24:34;;;;;;;14.18;7.93;;;;;;;;;;2066455;28;20027;-81
2022/08/27 01:25:53;;;;;;;13.48;9.52;;;;;;;;;;2069550;28;20113;-81
2022/08/27 01:27:15;;;;;;;13.63;8.70;;;;;;;;;;2067879;28;20117;-81
2022/08/27 01:28:35;;;;;;;16.35;7.75;;;;;;;;;;2060609;28;20031;-82
2022/08/27 01:29:54;;;;;;;11.30;8.82;;;;;;;;;;2051158;28;20062;-81
2022/08/27 01:31:13;;;;;;;12.82;9.00;;;;;;;;;;2062708;28;20562;-81
2022/08/27 01:32:33;;;;;;;14.02;8.05;;;;;;;;;;2067177;28;20546;-81
2022/08/27 01:34:03;;;;;;;16.15;8.25;;;;;;;;;;2059995;28;20519;-82
2022/08/27 01:35:23;;;;;;;15.07;8.43;;;;;;;;;;2059949;28;20117;-82
2022/08/27 01:36:42;;;;;;;12.57;7.85;;;;;;;;;;2066503;28;20027;-82
2022/08/27 01:38:01;;;;;;;13.52;8.25;;;;;;;;;;2060986;28;20047;-81
2022/08/27 01:39:20;;;;;;;10.70;8.35;;;;;;;;;;2059397;28;20027;-81
2022/08/27 01:40:39;;;;;;;14.85;8.57;;;;;;;;;;2057177;28;20031;-82
2022/08/27 01:42:02;;;;;;;11.00;8.77;;;;;;;;;;2055787;28;20031;-82
2022/08/27 01:43:22;;;;;;;16.08;8.48;;;;;;;;;;2058800;28;20027;-82
2022/08/27 01:44:42;;;;;;;14.60;8.98;;;;;;;;;;2067468;28;20026;-82
2022/08/27 01:46:01;;;;;;;12.80;8.70;;;;;;;;;;2067511;28;20026;-82
2022/08/27 01:47:21;;;;;;;13.23;9.18;;;;;;;;;;2060616;28;20697;-83
2022/08/27 01:48:41;;;;;;;15.15;9.45;;;;;;;;;;2065162;28;20030;-81
2022/08/27 01:50:00;;;;;;;15.63;9.93;;;;;;;;;;2067626;28;20140;-82
2022/08/27 01:51:20;;;;;;;14.32;9.07;;;;;;;;;;2059124;28;21026;-82
2022/08/27 01:52:39;;;;;;;13.93;9.55;;;;;;;;;;2057973;28;20074;-82
2022/08/27 01:53:58;;;;;;;14.75;9.25;;;;;;;;;;2063992;28;20061;-81
2022/08/27 01:55:18;;;;;;;17.20;9.18;;;;;;;;;;2059572;28;20038;-81
2022/08/27 01:56:37;;;;;;;12.48;9.25;;;;;;;;;;2064881;28;20065;-82
2022/08/27 01:57:56;;;;;;;13.10;7.90;;;;;;;;;;2060518;28;20030;-81
2022/08/27 01:59:16;;;;;;;14.77;8.90;;;;;;;;;;2055243;28;20039;-81
2022/08/27 02:00:38;;;;;;;10.52;8.43;;;;;;;;;;2056567;28;20018;-82
2022/08/27 02:01:57;;;;;;;10.82;8.05;;;;;;;;;;2061483;28;20026;-81
2022/08/27 02:03:17;;;;;;;16.10;8.70;;;;;;;;;;2064155;28;20076;-82
2022/08/27 02:04:36;;;;;;;13.18;8.15;;;;;;;;;;2060244;28;20030;-82
2022/08/27 02:05:55;;;;;;;15.75;9.38;;;;;;;;;;2057067;28;20125;-82
2022/08/27 02:07:14;;;;;;;11.32;8.80;;;;;;;;;;2057903;28;20091;-81
2022/08/27 02:08:33;;;;;;;12.88;8.25;;;;;;;;;;2060520;28;20427;-81
2022/08/27 02:09:52;;;;;;;12.73;8.27;;;;;;;;;;2060446;28;20038;-81
2022/08/27 02:11:11;;;;;;;8.95;8.00;;;;;;;;;;2065639;28;20035;-81
2022/08/27 02:12:30;;;;;;;12.13;8.13;;;;;;;;;;2066926;28;20022;-81
2022/08/27 02:13:49;;;;;;;9.13;8.23;;;;;;;;;;2060758;28;20038;-82
2022/08/27 02:15:09;;;;;;;13.45;8.68;;;;;;;;;;2058200;28;20023;-81
2022/08/27 02:16:28;;;;;;;11.93;7.95;;;;;;;;;;2060525;28;20039;-81
2022/08/27 02:17:46;;;;;;;9.80;7.63;;;;;;;;;;2063797;28;20030;-81
2022/08/27 02:19:07;;;;;;;11.43;7.70;;;;;;;;;;2064686;28;20042;-81
2022/08/27 02:20:26;;;;;;;11.00;8.75;;;;;;;;;;2056480;28;20121;-81
2022/08/27 02:21:45;;;;;;;9.00;8.07;;;;;;;;;;2056263;28;20061;-81
2022/08/27 02:23:05;;;;;;;14.43;8.45;;;;;;;;;;2058666;28;20042;-80
2022/08/27 02:24:24;;;;;;;19.80;9.32;;;;;;;;;;2053619;28;20686;-81
2022/08/27 02:25:45;;;;;;;12.02;8.25;;;;;;;;;;2059267;28;20026;-80
2022/08/27 02:27:05;;;;;;;9.82;8.57;;;;;;;;;;2066351;28;20034;-81
2022/08/27 02:28:24;;;;;;;12.45;7.47;;;;;;;;;;2067361;28;20495;-81
2022/08/27 02:29:44;;;;;;;12.93;7.97;;;;;;;;;;2058353;28;20034;-81
2022/08/27 02:31:03;;;;;;;12.88;8.10;;;;;;;;;;2066658;28;20069;-81
2022/08/27 02:32:22;;;;;;;9.05;7.35;;;;;;;;;;2066623;28;20034;-81
2022/08/27 02:33:42;;;;;;;10.45;7.53;;;;;;;;;;2059736;28;20030;-81
2022/08/27 02:35:03;;;;;;;13.18;8.23;;;;;;;;;;2061963;28;20046;-82
2022/08/27 02:36:23;;;;;;;14.20;8.73;;;;;;;;;;2058469;28;20110;-82
2022/08/27 02:37:43;;;;;;;10.48;8.50;;;;;;;;;;2065213;28;20038;-82
2022/08/27 02:39:03;;;;;;;10.45;8.80;;;;;;;;;;2068450;28;20080;-82
2022/08/27 02:40:23;;;;;;;9.07;8.18;;;;;;;;;;2065311;28;20074;-82
2022/08/27 02:41:42;;;;;;;13.88;8.48;;;;;;;;;;2057665;28;20505;-82
2022/08/27 02:43:00;;;;;;;10.02;7.68;;;;;;;;;;2067560;28;20434;-82
2022/08/27 02:44:19;;;;;;;18.48;8.05;;;;;;;;;;2061983;28;20030;-82
2022/08/27 02:45:39;;;;;;;10.23;8.30;;;;;;;;;;2065270;28;20023;-83
2022/08/27 02:46:58;;;;;;;13.50;8.52;;;;;;;;;;2066369;28;20090;-82
2022/08/27 02:48:17;;;;;;;17.48;8.50;;;;;;;;;;2059016;28;20057;-81
2022/08/27 02:49:36;;;;;;;13.85;8.82;;;;;;;;;;2055916;28;20099;-82
2022/08/27 02:50:55;;;;;;;9.57;8.13;;;;;;;;;;2068340;28;20030;-82
2022/08/27 02:52:15;;;;;;;12.73;8.07;;;;;;;;;;2058969;28;20463;-82
2022/08/27 02:53:35;;;;;;;10.40;8.38;;;;;;;;;;2059547;28;20031;-82
2022/08/27 02:54:57;;;;;;;10.73;8.23;;;;;;;;;;2055542;28;20026;-83
2022/08/27 02:56:16;;;;;;;15.15;8.80;;;;;;;;;;2057790;28;20073;-83
2022/08/27 02:57:35;;;;;;;12.48;8.68;;;;;;;;;;2067108;28;20050;-83
2022/08/27 02:58:54;;;;;;;9.35;8.35;;;;;;;;;;2060808;28;20034;-82
2022/08/27 03:00:16;;;;;;;13.15;8.45;;;;;;;;;;2061223;28;20109;-82
2022/08/27 03:01:35;;;;;;;14.55;8.65;;;;;;;;;;2060443;28;20131;-83
2022/08/27 03:02:55;;;;;;;10.63;8.23;;;;;;;;;;2067870;28;20030;-83
2022/08/27 03:04:14;;;;;;;11.02;8.35;;;;;;;;;;2058055;28;20031;-83
2022/08/27 03:05:33;;;;;;;11.57;8.43;;;;;;;;;;2062592;28;20018;-82
2022/08/27 03:06:53;;;;;;;12.57;9.52;;;;;;;;;;2060560;28;20031;-82
2022/08/27 03:08:12;;;;;;;12.27;8.50;;;;;;;;;;2059396;28;20030;-82
2022/08/27 03:09:33;;;;;;;10.23;8.40;;;;;;;;;;2065729;28;20499;-82
2022/08/27 03:10:52;;;;;;;10.00;8.30;;;;;;;;;;2063156;28;20022;-82
2022/08/27 03:12:12;;;;;;;13.23;8.63;;;;;;;;;;2059982;28;20026;-82
2022/08/27 03:13:30;;;;;;;10.75;8.82;;;;;;;;;;2064916;28;20034;-81
2022/08/27 03:14:49;;;;;;;11.82;8.25;;;;;;;;;;2061569;28;20031;-83
2022/08/27 03:16:08;;;;;;;12.68;7.95;;;;;;;;;;2065036;28;20022;-82
2022/08/27 03:19:06;;;;;;;13.68;8.50;;;;;;;;;;2065157;28;20085;-82
2022/08/27 03:20:25;;;;;;;12.70;8.55;;;;;;;;;;2057928;28;20042;-82
2022/08/27 03:21:45;;;;;;;11.80;8.60;;;;;;;;;;2063296;28;20026;-82
2022/08/27 03:23:04;;;;;;;11.00;8.60;;;;;;;;;;2058295;28;20027;-82
2022/08/27 03:24:22;;;;;;;11.90;8.48;;;;;;;;;;2054242;28;20031;-82
2022/08/27 03:25:44;;;;;;;8.77;7.90;;;;;;;;;;2060086;28;20390;-82
2022/08/27 03:27:03;;;;;;;9.32;8.40;;;;;;;;;;2062287;28;20483;-83
2022/08/27 03:28:24;;;;;;;14.38;8.30;;;;;;;;;;2062630;28;20099;-83
2022/08/27 03:29:43;;;;;;;15.63;8.10;;;;;;;;;;2064753;28;20027;-82
2022/08/27 03:31:04;;;;;;;9.75;7.50;;;;;;;;;;2067892;28;20033;-83
2022/08/27 03:32:23;;;;;;;11.35;8.32;;;;;;;;;;2071276;28;20022;-83
2022/08/27 03:33:42;;;;;;;11.07;7.78;;;;;;;;;;2059299;28;20066;-82
2022/08/27 03:35:01;;;;;;;9.15;7.97;;;;;;;;;;2062839;28;20035;-83
2022/08/27 03:36:20;;;;;;;13.95;8.00;;;;;;;;;;2067567;28;20576;-83
2022/08/27 03:37:39;;;;;;;12.75;8.25;;;;;;;;;;2064095;28;20411;-83
2022/08/27 03:38:59;;;;;;;14.57;8.90;;;;;;;;;;2061210;28;20030;-81
2022/08/27 03:40:18;;;;;;;11.18;8.63;;;;;;;;;;2059072;28;20031;-81
2022/08/27 03:41:37;;;;;;;12.43;7.53;;;;;;;;;;2065421;28;20030;-81
2022/08/27 03:42:56;;;;;;;9.10;8.10;;;;;;;;;;2061685;28;20034;-81
2022/08/27 03:44:15;;;;;;;12.10;8.45;;;;;;;;;;2060216;28;20039;-82
2022/08/27 03:45:34;;;;;;;9.10;8.25;;;;;;;;;;2059402;28;20042;-82
2022/08/27 03:46:52;;;;;;;12.40;8.05;;;;;;;;;;2059026;28;20137;-82
2022/08/27 03:48:12;;;;;;;9.98;8.00;;;;;;;;;;2055520;28;20109;-81
2022/08/27 03:49:31;;;;;;;11.60;8.57;;;;;;;;;;2060933;28;20050;-82
2022/08/27 03:50:50;;;;;;;9.88;8.05;;;;;;;;;;2067019;28;20054;-82
2022/08/27 03:52:09;;;;;;;10.40;8.80;;;;;;;;;;2059134;28;20026;-81
2022/08/27 03:53:28;;;;;;;9.65;8.27;;;;;;;;;;2063497;28;20612;-81
2022/08/27 03:54:47;;;;;;;15.15;8.95;;;;;;;;;;2058415;28;20023;-80
2022/08/27 03:56:07;;;;;;;10.60;8.52;;;;;;;;;;2063730;28;20505;-81
2022/08/27 03:57:25;;;;;;;10.57;8.63;;;;;;;;;;2060343;28;20034;-81
2022/08/27 03:58:44;;;;;;;11.38;8.80;;;;;;;;;;2057981;28;20035;-81
2022/08/27 04:00:05;;;;;;;12.93;9.23;;;;;;;;;;2051530;28;20031;-80
2022/08/27 04:01:25;;;;;;;12.07;8.98;;;;;;;;;;2062236;28;20022;-81
2022/08/27 04:02:44;;;;;;;15.13;8.73;;;;;;;;;;2059989;28;20034;-81
2022/08/27 04:04:03;;;;;;;10.48;8.15;;;;;;;;;;2053819;28;20061;-81
2022/08/27 04:05:22;;;;;;;10.68;8.43;;;;;;;;;;2061200;28;20038;-81
2022/08/27 04:06:41;;;;;;;17.58;9.00;;;;;;;;;;2057680;28;20030;-80
2022/08/27 04:08:00;;;;;;;10.52;8.43;;;;;;;;;;2064426;28;20622;-81
2022/08/27 04:09:19;;;;;;;11.27;8.63;;;;;;;;;;2061022;28;20420;-81
2022/08/27 04:10:41;;;;;;;13.02;8.50;;;;;;;;;;2056172;28;20034;-81
2022/08/27 04:12:00;;;;;;;12.00;8.07;;;;;;;;;;2054878;28;20046;-80
2022/08/27 04:13:19;;;;;;;12.63;8.50;;;;;;;;;;2055411;28;20875;-80
2022/08/27 04:14:38;;;;;;;13.73;8.98;;;;;;;;;;2061581;28;20585;-80
2022/08/27 04:15:57;;;;;;;12.50;8.50;;;;;;;;;;2059620;28;20043;-80
2022/08/27 04:17:16;;;;;;;15.48;8.30;;;;;;;;;;2055581;28;20054;-80
2022/08/27 04:18:35;;;;;;;9.18;8.18;;;;;;;;;;2056116;28;20033;-80
2022/08/27 04:19:54;;;;;;;12.02;8.20;;;;;;;;;;2059347;28;20113;-81
2022/08/27 04:21:13;;;;;;;14.60;8.57;;;;;;;;;;2065873;28;20109;-80
2022/08/27 04:22:32;;;;;;;15.43;8.02;;;;;;;;;;2059933;28;20023;-80
2022/08/27 04:23:51;;;;;;;9.85;8.00;;;;;;;;;;2056768;28;20070;-80
2022/08/27 04:25:10;;;;;;;11.57;9.05;;;;;;;;;;2054898;28;20415;-81
2022/08/27 04:26:29;;;;;;;11.68;8.52;;;;;;;;;;2063197;28;20105;-81
2022/08/27 04:27:48;;;;;;;11.32;8.02;;;;;;;;;;2059062;28;20034;-81
2022/08/27 04:29:07;;;;;;;9.38;8.48;;;;;;;;;;2054534;28;20019;-84
2022/08/27 04:30:26;;;;;;;11.02;8.98;;;;;;;;;;2054262;28;20064;-85
2022/08/27 04:31:45;;;;;;;14.52;8.90;;;;;;;;;;2058838;28;20030;-85
2022/08/27 04:33:04;;;;;;;10.57;8.45;;;;;;;;;;2060057;28;20026;-83
2022/08/27 04:34:23;;;;;;;10.10;8.75;;;;;;;;;;2065441;28;20042;-85
2022/08/27 04:35:42;;;;;;;12.30;9.07;;;;;;;;;;2063256;28;20491;-81
2022/08/27 04:37:01;;;;;;;12.60;9.68;;;;;;;;;;2059962;28;20030;-83
2022/08/27 04:38:20;;;;;;;12.77;9.30;;;;;;;;;;2053633;28;20488;-84
2022/08/27 04:39:39;;;;;;;13.52;9.20;;;;;;;;;;2065805;28;20033;-83
2022/08/27 04:42:51;;;;;;;12.45;8.35;;;;;;;;;;2060657;28;20030;-81
2022/08/27 04:44:10;;;;;;;10.50;8.18;;;;;;;;;;2061528;28;20061;-82
2022/08/27 04:45:29;;;;;;;11.38;8.65;;;;;;;;;;2054485;28;20030;-85
2022/08/27 04:46:49;;;;;;;10.93;9.10;;;;;;;;;;2055790;28;20038;-82
2022/08/27 04:48:09;;;;;;;12.88;8.88;;;;;;;;;;2056516;28;20022;-82
2022/08/27 04:49:29;;;;;;;9.32;8.43;;;;;;;;;;2063719;28;20031;-81
2022/08/27 04:50:48;;;;;;;9.82;8.60;;;;;;;;;;2061187;28;20193;-81
2022/08/27 04:52:06;;;;;;;12.95;9.27;;;;;;;;;;2067413;28;20025;-81
2022/08/27 04:53:25;;;;;;;10.23;8.73;;;;;;;;;;2059124;28;20598;-80
2022/08/27 04:54:44;;;;;;;10.77;8.82;;;;;;;;;;2064139;28;20030;-81
2022/08/27 04:56:03;;;;;;;9.73;8.70;;;;;;;;;;2066174;28;20023;-80
2022/08/27 04:57:23;;;;;;;11.05;8.63;;;;;;;;;;2066763;28;20022;-82
2022/08/27 04:58:42;;;;;;;11.40;9.07;;;;;;;;;;2066629;28;20470;-82
2022/08/27 05:00:02;;;;;;;13.73;9.18;;;;;;;;;;2065745;28;20029;-82
2022/08/27 05:01:23;;;;;;;13.57;9.45;;;;;;;;;;2061464;28;20458;-81
2022/08/27 05:02:43;;;;;;;18.38;9.35;;;;;;;;;;2064818;28;20448;-84
2022/08/27 05:04:02;;;;;;;12.70;9.43;;;;;;;;;;2063717;28;20407;-82
2022/08/27 05:05:22;;;;;;;12.15;9.13;;;;;;;;;;2054016;28;20034;-80
2022/08/27 05:06:44;;;;;;;12.52;9.18;;;;;;;;;;2062488;28;20022;-80
2022/08/27 05:08:05;;;;;;;16.23;9.68;;;;;;;;;;2067304;28;20407;-80
2022/08/27 05:09:24;;;;;;;12.50;8.70;;;;;;;;;;2061476;28;20034;-81
2022/08/27 05:10:44;;;;;;;16.42;10.38;;;;;;;;;;2058469;28;20436;-84
2022/08/27 05:12:03;;;;;;;11.68;9.05;;;;;;;;;;2062509;28;20030;-82
2022/08/27 05:13:23;;;;;;;12.50;9.70;;;;;;;;;;2061940;28;20031;-83
2022/08/27 05:14:42;;;;;;;11.23;9.90;;;;;;;;;;2064667;28;20022;-80
2022/08/27 05:16:02;;;;;;;13.95;8.48;;;;;;;;;;2066882;28;20034;-82
2022/08/27 05:17:21;;;;;;;13.32;9.27;;;;;;;;;;2070126;28;20030;-81
2022/08/27 05:18:41;;;;;;;12.70;9.25;;;;;;;;;;2057756;28;20158;-81
2022/08/27 05:20:00;;;;;;;11.27;8.63;;;;;;;;;;2066144;28;20082;-82
2022/08/27 05:21:24;;;;;;;10.48;9.35;;;;;;;;;;2058402;28;20047;-83
2022/08/27 05:22:43;;;;;;;10.65;8.45;;;;;;;;;;2055637;28;20498;-83
2022/08/27 05:24:03;;;;;;;15.02;8.80;;;;;;;;;;2052407;28;20030;-82
2022/08/27 05:25:22;;;;;;;12.15;9.27;;;;;;;;;;2064021;28;20026;-85
2022/08/27 05:26:42;;;;;;;12.77;9.90;;;;;;;;;;2059860;28;20037;-82
2022/08/27 05:28:01;;;;;;;10.60;8.55;;;;;;;;;;2061428;28;20035;-80
2022/08/27 05:29:21;;;;;;;18.65;9.95;;;;;;;;;;2065289;28;20049;-82
2022/08/27 05:30:42;;;;;;;13.50;9.13;;;;;;;;;;2061804;28;20034;-83
2022/08/27 05:32:01;;;;;;;14.05;9.20;;;;;;;;;;2061951;28;20030;-83
2022/08/27 05:33:21;;;;;;;12.43;9.27;;;;;;;;;;2055817;28;20113;-83
2022/08/27 05:34:40;;;;;;;13.77;9.63;;;;;;;;;;2058601;28;20031;-84
2022/08/27 05:35:59;;;;;;;11.60;9.63;;;;;;;;;;2064209;28;20042;-83
2022/08/27 05:37:18;;;;;;;13.88;9.32;;;;;;;;;;2068817;28;20580;-83
2022/08/27 05:38:37;;;;;;;10.15;9.18;;;;;;;;;;2063004;28;20039;-82
2022/08/27 05:39:56;;;;;;;16.02;10.18;;;;;;;;;;2063739;28;20034;-83
2022/08/27 05:41:17;;;;;;;12.88;9.75;;;;;;;;;;2058033;28;20080;-83
2022/08/27 05:42:36;;;;;;;13.68;8.93;;;;;;;;;;2063723;28;20460;-83
2022/08/27 05:43:56;;;;;;;11.05;9.07;;;;;;;;;;2064103;28;20026;-83
2022/08/27 05:45:16;;;;;;;10.40;9.23;;;;;;;;;;2064403;28;20030;-83
2022/08/27 05:46:36;;;;;;;14.05;9.57;;;;;;;;;;2060434;28;20420;-83
2022/08/27 05:47:56;;;;;;;11.25;10.05;;;;;;;;;;2065009;28;20026;-81
2022/08/27 05:49:15;;;;;;;13.68;10.18;;;;;;;;;;2067013;28;20042;-83
2022/08/27 05:50:34;;;;;;;14.40;10.38;;;;;;;;;;2059582;28;20030;-83
2022/08/27 05:51:53;;;;;;;11.05;10.00;;;;;;;;;;2061457;28;20038;-82
2022/08/27 05:53:12;;;;;;;15.30;9.70;;;;;;;;;;2064030;28;20034;-85
2022/08/27 05:54:31;;;;;;;14.00;10.23;;;;;;;;;;2064624;28;20519;-81
2022/08/27 05:55:50;;;;;;;11.40;10.07;;;;;;;;;;2054924;28;20039;-82
2022/08/27 05:57:08;;;;;;;13.57;9.30;;;;;;;;;;2064270;28;20038;-82
2022/08/27 06:01:44;;;;;;;13.20;10.57;;;;;;;;;;2066644;28;20026;-82
2022/08/27 06:03:03;;;;;;;13.30;10.07;;;;;;;;;;2061701;28;20112;-82
2022/08/27 06:04:22;;;;;;;15.90;9.55;;;;;;;;;;2066929;28;20029;-82
2022/08/27 06:05:42;;;;;;;15.85;9.70;;;;;;;;;;2058980;28;20090;-81
2022/08/27 06:07:01;;;;;;;10.40;9.07;;;;;;;;;;2063946;28;20030;-82
2022/08/27 06:08:20;;;;;;;11.90;9.50;;;;;;;;;;2062939;28;20423;-81
2022/08/27 06:09:38;;;;;;;13.13;9.50;;;;;;;;;;2059329;28;20019;-82
2022/08/27 06:11:04;;;;;;;11.50;9.63;;;;;;;;;;2058399;28;20026;-81
2022/08/27 06:12:24;;;;;;;13.60;9.60;;;;;;;;;;2066543;28;20100;-81
2022/08/27 06:13:43;;;;;;;15.57;9.73;;;;;;;;;;2060962;28;20038;-80
2022/08/27 06:15:02;;;;;;;10.07;9.07;;;;;;;;;;2057389;28;20500;-80
2022/08/27 06:16:22;;;;;;;14.60;10.05;;;;;;;;;;2056719;28;20030;-81
2022/08/27 06:17:41;;;;;;;13.52;9.75;;;;;;;;;;2063861;28;20030;-80
2022/08/27 06:19:00;;;;;;;12.60;9.23;;;;;;;;;;2066207;28;20042;-80
2022/08/27 06:20:19;;;;;;;16.30;10.07;;;;;;;;;;2059887;28;20038;-83
2022/08/27 06:21:39;;;;;;;14.90;9.98;;;;;;;;;;2057036;28;20023;-80
2022/08/27 06:22:58;;;;;;;13.38;9.95;;;;;;;;;;2066678;28;20400;-81
2022/08/27 06:24:17;;;;;;;13.63;9.57;;;;;;;;;;2058187;28;20034;-82
2022/08/27 06:25:38;;;;;;;15.00;9.05;;;;;;;;;;2055790;28;20515;-81
2022/08/27 06:26:58;;;;;;;12.10;9.63;;;;;;;;;;2062015;28;20042;-81
2022/08/27 06:28:20;;;;;;;12.95;9.40;;;;;;;;;;2063372;28;20066;-81
2022/08/27 06:29:39;;;;;;;16.30;10.02;;;;;;;;;;2067639;28;20031;-80
2022/08/27 06:31:24;;;;;;;14.60;9.50;;;;;;;;;;2053730;28;20043;-80
2022/08/27 06:32:43;;;;;;;14.98;9.93;;;;;;;;;;2069146;28;20045;-80
2022/08/27 06:34:03;;;;;;;13.02;9.00;;;;;;;;;;2068792;28;20511;-79
2022/08/27 06:35:22;;;;;;;13.77;10.30;;;;;;;;;;2067342;28;20027;-79
2022/08/27 06:36:41;;;;;;;19.45;10.82;;;;;;;;;;2069159;28;20038;-79
2022/08/27 06:38:00;;;;;;;15.20;10.13;;;;;;;;;;2070089;28;20042;-80
2022/08/27 06:39:19;;;;;;;13.68;9.27;;;;;;;;;;2069055;28;20042;-79
2022/08/27 06:40:39;;;;;;;15.25;9.80;;;;;;;;;;2065594;28;20435;-80
2022/08/27 06:41:58;;;;;;;17.92;9.80;;;;;;;;;;2064979;28;20046;-79
2022/08/27 06:43:17;;;;;;;12.32;9.30;;;;;;;;;;2062172;28;20034;-79
2022/08/27 06:44:53;;;;;;;17.00;9.07;;;;;;;;;;2067042;28;20030;-80
2022/08/27 06:46:14;;;;;;;12.98;9.65;;;;;;;;;;2065182;28;20030;-79
2022/08/27 06:47:35;;;;;;;16.13;9.57;;;;;;;;;;2062940;28;20030;-80
2022/08/27 06:48:56;;;;;;;11.55;9.27;;;;;;;;;;2067196;28;20035;-79
2022/08/27 06:50:15;;;;;;;11.18;9.38;;;;;;;;;;2061432;28;20129;-80
2022/08/27 06:51:35;;;;;;;9.55;8.50;;;;;;;;;;2058654;28;20038;-80
2022/08/27 06:52:53;;;;;;;13.38;9.18;;;;;;;;;;2059664;28;20030;-80
2022/08/27 06:54:13;;;;;;;16.00;9.25;;;;;;;;;;2066144;28;20026;-79
2022/08/27 06:55:38;;;;;;;13.00;9.40;;;;;;;;;;2057956;28;20034;-80
2022/08/27 06:56:59;;;;;;;15.82;9.52;;;;;;;;;;2067391;28;20062;-80
2022/08/27 06:58:18;;;;;;;16.58;9.80;;;;;;;;;;2063503;28;20038;-80
2022/08/27 06:59:38;;;;;;;15.25;9.15;;;;;;;;;;2065911;28;20054;-81
2022/08/27 07:00:57;;;;;;;16.55;9.50;;;;;;;;;;2067081;28;20065;-80
2022/08/27 07:02:16;;;;;;;14.40;9.55;;;;;;;;;;2066955;28;20033;-80
2022/08/27 07:03:35;;;;;;;13.18;9.15;;;;;;;;;;2061163;28;20512;-79
2022/08/27 07:04:53;;;;;;;13.50;9.02;;;;;;;;;;2059249;28;20508;-79
2022/08/27 07:06:13;;;;;;;14.02;9.35;;;;;;;;;;2058004;28;20027;-80
2022/08/27 07:07:33;;;;;;;16.83;9.38;;;;;;;;;;2063142;28;20034;-80
2022/08/27 07:08:52;;;;;;;14.63;8.90;;;;;;;;;;2062621;28;20022;-79
2022/08/27 07:10:11;;;;;;;11.70;9.02;;;;;;;;;;2059942;28;20069;-79
2022/08/27 07:11:33;;;;;;;15.93;8.98;;;;;;;;;;2062998;28;20551;-79
2022/08/27 07:12:52;;;;;;;15.80;9.80;;;;;;;;;;2066829;28;20062;-79
2022/08/27 07:14:11;;;;;;;11.13;9.02;;;;;;;;;;2064252;28;20054;-80
2022/08/27 07:15:30;;;;;;;12.15;9.38;;;;;;;;;;2067707;28;20027;-79
2022/08/27 07:16:51;;;;;;;11.60;9.30;;;;;;;;;;2060527;28;20023;-80
2022/08/27 07:18:10;;;;;;;10.82;8.75;;;;;;;;;;2058696;28;20031;-79
2022/08/27 07:19:29;;;;;;;13.45;9.30;;;;;;;;;;2065477;28;20046;-79
2022/08/27 07:20:50;;;;;;;20.48;9.98;;;;;;;;;;2058663;28;20043;-80
2022/08/27 07:22:10;;;;;;;12.07;9.55;;;;;;;;;;2065798;28;20022;-80
2022/08/27 07:23:30;;;;;;;13.23;9.35;;;;;;;;;;2063047;28;20106;-80
2022/08/27 07:24:50;;;;;;;22.58;9.90;;;;;;;;;;2065316;28;20101;-80
2022/08/27 07:26:11;;;;;;;14.45;9.40;;;;;;;;;;2068781;28;20029;-79
2022/08/27 07:27:30;;;;;;;14.32;9.43;;;;;;;;;;2067629;28;20027;-80
2022/08/27 07:28:49;;;;;;;18.27;9.35;;;;;;;;;;2066121;28;20034;-79
2022/08/27 07:30:10;;;;;;;14.35;9.35;;;;;;;;;;2062952;28;20475;-79
2022/08/27 07:31:30;;;;;;;16.80;9.25;;;;;;;;;;2065265;28;20026;-80
2022/08/27 07:32:48;;;;;;;16.90;9.45;;;;;;;;;;2067833;28;20022;-80
2022/08/27 07:34:08;;;;;;;15.40;9.80;;;;;;;;;;2065463;28;20575;-80
2022/08/27 07:35:27;;;;;;;16.48;9.45;;;;;;;;;;2067777;28;20041;-79
2022/08/27 07:36:46;;;;;;;15.55;9.38;;;;;;;;;;2061331;28;21419;-80
2022/08/27 07:38:05;;;;;;;14.43;9.13;;;;;;;;;;2061979;28;20435;-78
2022/08/27 07:39:24;;;;;;;14.52;9.00;;;;;;;;;;2063057;28;20053;-79
2022/08/27 07:40:43;;;;;;;16.13;9.02;;;;;;;;;;2066601;28;20033;-80
2022/08/27 07:45:18;;;;;;;9.73;8.68;;;;;;;;;;2065579;28;20027;-79
2022/08/27 07:46:37;;;;;;;11.73;9.48;;;;;;;;;;2067489;28;20062;-79
2022/08/27 07:47:56;;;;;;;13.93;9.07;;;;;;;;;;2062701;28;20034;-79
2022/08/27 07:49:16;;;;;;;16.00;9.05;;;;;;;;;;2059114;28;20097;-79
2022/08/27 07:50:35;;;;;;;18.17;9.38;;;;;;;;;;2066148;28;20113;-79
2022/08/27 07:51:54;;;;;;;16.38;8.70;;;;;;;;;;2060987;28;20405;-79
2022/08/27 07:53:13;;;;;;;13.25;9.85;;;;;;;;;;2066255;28;20034;-79
2022/08/27 07:54:32;;;;;;;15.68;9.45;;;;;;;;;;2063432;28;20038;-79
2022/08/27 07:55:51;;;;;;;10.90;8.65;;;;;;;;;;2066716;28;20037;-79
2022/08/27 07:57:10;;;;;;;12.80;8.55;;;;;;;;;;2055046;28;20035;-79
2022/08/27 07:58:29;;;;;;;11.80;8.38;;;;;;;;;;2060498;28;20047;-79
2022/08/27 07:59:48;;;;;;;11.90;8.50;;;;;;;;;;2060433;28;20492;-79
2022/08/27 08:01:07;;;;;;;12.85;8.90;;;;;;;;;;2060096;28;20027;-79
2022/08/27 08:02:26;;;;;;;13.60;9.75;;;;;;;;;;2063555;28;20034;-79